Time;durP1;ratioP1;P1;durP2;ratioP2;P2;SDS_P1;SDS_P2;PMS_P1;PMS_P2;Temp;Humidity;BMP_temperature;BMP_pressure;BME280_temperature;BME280_humidity;BME280_pressure;Samples;Min_cycle;Max_cycle;Signal;HPM_P1;HPM_P2
2021/07/12 00:00:26;;;;;;;11.32;7.65;;;14.60;99.90;;;;;;5074256;28;20390;-69
2021/07/12 00:02:53;;;;;;;11.48;7.28;;;14.50;99.90;;;;;;5074424;28;20032;-69
2021/07/12 00:05:19;;;;;;;10.43;7.05;;;14.50;99.90;;;;;;5074475;28;20032;-68
2021/07/12 00:07:46;;;;;;;10.27;6.55;;;14.40;99.90;;;;;;5074720;28;20483;-68
2021/07/12 00:10:14;;;;;;;13.05;6.95;;;14.40;99.90;;;;;;5074106;28;20032;-70
2021/07/12 00:12:41;;;;;;;7.63;5.72;;;14.40;99.90;;;;;;5074603;28;20107;-69
2021/07/12 00:15:09;;;;;;;7.50;6.03;;;14.30;99.90;;;;;;5074507;28;20029;-67
2021/07/12 00:17:35;;;;;;;13.32;6.75;;;14.30;99.90;;;;;;5074657;28;20029;-68
2021/07/12 00:20:02;;;;;;;9.18;6.60;;;14.30;99.90;;;;;;5055752;28;20025;-68
2021/07/12 00:22:28;;;;;;;8.50;6.50;;;14.30;99.90;;;;;;5074389;28;20029;-68
2021/07/12 00:24:54;;;;;;;8.50;6.40;;;14.20;99.90;;;;;;5074455;28;20021;-68
2021/07/12 00:27:19;;;;;;;8.93;5.78;;;14.20;99.90;;;;;;5074472;28;20025;-68
2021/07/12 00:29:45;;;;;;;14.10;6.40;;;14.10;99.90;;;;;;5073730;28;20502;-67
2021/07/12 00:32:11;;;;;;;7.90;5.63;;;14.10;99.90;;;;;;5074228;28;20028;-68
2021/07/12 00:34:36;;;;;;;11.98;5.57;;;14.00;99.90;;;;;;5073834;28;20048;-68
2021/07/12 00:37:02;;;;;;;10.85;6.28;;;14.00;99.90;;;;;;5074170;28;20029;-69
2021/07/12 00:39:28;;;;;;;6.82;5.55;;;14.00;99.90;;;;;;5074340;28;20025;-68
2021/07/12 00:41:53;;;;;;;10.27;5.47;;;14.00;99.90;;;;;;5073716;28;20376;-69
2021/07/12 00:44:19;;;;;;;10.07;5.65;;;14.00;99.90;;;;;;5074537;28;20529;-69
2021/07/12 00:46:45;;;;;;;9.48;6.40;;;14.00;99.90;;;;;;5073994;28;20021;-68
2021/07/12 00:49:10;;;;;;;7.10;6.40;;;14.00;99.90;;;;;;5073641;28;20500;-68
2021/07/12 00:51:37;;;;;;;6.05;5.45;;;14.00;99.90;;;;;;5072399;28;20521;-68
2021/07/12 00:54:03;;;;;;;11.38;6.60;;;13.90;99.90;;;;;;5072439;28;20544;-68
2021/07/12 00:56:29;;;;;;;9.43;6.35;;;13.90;99.90;;;;;;5081028;28;20397;-68
2021/07/12 00:58:55;;;;;;;9.80;5.70;;;13.80;99.90;;;;;;5100496;28;20028;-68
2021/07/12 01:01:21;;;;;;;8.82;6.45;;;13.70;99.90;;;;;;5093185;28;20032;-68
2021/07/12 01:03:47;;;;;;;11.55;6.20;;;13.70;99.90;;;;;;5102306;28;20478;-70
2021/07/12 01:06:13;;;;;;;9.13;5.60;;;13.70;99.90;;;;;;5110123;28;20039;-68
2021/07/12 01:08:39;;;;;;;6.10;5.30;;;13.60;99.90;;;;;;5114288;28;20044;-69
2021/07/12 01:11:23;;;;;;;13.00;6.00;;;13.60;99.90;;;;;;5113786;28;20055;-67
2021/07/12 01:14:04;;;;;;;6.30;4.97;;;13.60;99.90;;;;;;5114180;28;20103;-67
2021/07/12 01:16:58;;;;;;;10.60;6.90;;;13.60;99.90;;;;;;5114537;28;20103;-67
2021/07/12 01:19:54;;;;;;;9.13;5.53;;;13.70;99.90;;;;;;5114191;28;20024;-68
2021/07/12 01:22:54;;;;;;;9.85;6.70;;;13.70;99.90;;;;;;5114382;28;20059;-68
2021/07/12 01:26:10;;;;;;;9.88;5.35;;;13.60;99.90;;;;;;5113113;28;20020;-68
2021/07/12 01:29:04;;;;;;;11.38;6.25;;;13.60;99.90;;;;;;5037470;28;20086;-68
2021/07/12 01:32:01;;;;;;;11.27;6.63;;;13.50;99.90;;;;;;5074741;28;20075;-68
2021/07/12 01:34:44;;;;;;;15.63;6.75;;;13.50;99.90;;;;;;5075287;28;20023;-68
2021/07/12 01:37:31;;;;;;;10.90;6.22;;;13.40;99.90;;;;;;5093362;28;20093;-68
2021/07/12 01:40:04;;;;;;;10.15;6.07;;;13.40;99.90;;;;;;5092873;28;20062;-68
2021/07/12 01:42:41;;;;;;;12.77;5.75;;;13.40;99.90;;;;;;5093168;28;20073;-68
2021/07/12 01:45:16;;;;;;;8.68;5.72;;;13.40;99.90;;;;;;5093465;28;20592;-68
2021/07/12 01:47:52;;;;;;;11.68;6.13;;;13.30;99.90;;;;;;5093519;28;20032;-69
2021/07/12 01:50:41;;;;;;;8.68;6.25;;;13.30;99.90;;;;;;5074145;28;20027;-68
2021/07/12 01:53:28;;;;;;;8.43;6.15;;;13.40;99.90;;;;;;5093085;28;20024;-67
2021/07/12 01:56:06;;;;;;;8.82;6.75;;;13.30;99.90;;;;;;5093077;28;20027;-68
2021/07/12 01:58:46;;;;;;;8.32;6.25;;;13.30;99.90;;;;;;5102967;28;20052;-68
2021/07/12 02:01:13;;;;;;;7.68;5.30;;;13.30;99.90;;;;;;5101972;28;20020;-68
2021/07/12 02:03:39;;;;;;;8.32;5.70;;;13.30;99.90;;;;;;5093316;28;20063;-68
2021/07/12 02:06:08;;;;;;;7.75;5.65;;;13.20;99.90;;;;;;5091799;28;20139;-68
2021/07/12 02:08:39;;;;;;;6.95;5.35;;;13.20;99.90;;;;;;5092821;28;20044;-69
2021/07/12 02:11:05;;;;;;;10.13;6.30;;;13.20;99.90;;;;;;5092266;28;20362;-68
2021/07/12 02:13:36;;;;;;;13.23;6.93;;;13.20;99.90;;;;;;5092805;28;20024;-69
2021/07/12 02:16:03;;;;;;;7.97;5.35;;;13.20;99.90;;;;;;5092528;28;20016;-68
2021/07/12 02:18:33;;;;;;;9.40;6.70;;;13.10;99.90;;;;;;5101837;28;20028;-68
2021/07/12 02:21:00;;;;;;;11.90;7.18;;;13.10;99.90;;;;;;5111932;28;20127;-69
2021/07/12 02:23:27;;;;;;;10.95;6.50;;;13.10;99.90;;;;;;5112792;28;20485;-68
2021/07/12 02:25:54;;;;;;;7.45;6.30;;;13.10;99.90;;;;;;5112768;28;20039;-68
2021/07/12 02:28:22;;;;;;;15.25;6.60;;;13.10;99.90;;;;;;5112690;28;20039;-68
2021/07/12 02:30:49;;;;;;;14.15;7.32;;;13.10;99.90;;;;;;5112181;28;20019;-68
2021/07/12 02:33:16;;;;;;;12.70;7.70;;;13.00;99.90;;;;;;5114971;28;20038;-67
2021/07/12 02:35:43;;;;;;;15.30;6.82;;;13.10;99.90;;;;;;5098020;28;20024;-68
2021/07/12 02:38:09;;;;;;;8.07;7.28;;;13.10;99.90;;;;;;5099991;28;20041;-68
2021/07/12 02:40:36;;;;;;;9.55;5.97;;;13.10;99.90;;;;;;5096786;28;20086;-68
2021/07/12 02:43:03;;;;;;;8.07;5.65;;;13.00;99.90;;;;;;5092139;28;20052;-68
2021/07/12 02:45:30;;;;;;;14.52;6.00;;;12.80;99.90;;;;;;5092119;28;20028;-68
2021/07/12 02:47:56;;;;;;;10.98;6.55;;;12.80;99.90;;;;;;5092454;28;20020;-69
2021/07/12 02:50:22;;;;;;;9.60;6.47;;;12.90;99.90;;;;;;5095639;28;20535;-68
2021/07/12 02:52:56;;;;;;;9.30;5.45;;;12.90;99.90;;;;;;5095982;28;20031;-69
2021/07/12 02:55:22;;;;;;;11.90;6.35;;;12.80;99.90;;;;;;5093095;28;20024;-69
2021/07/12 02:57:48;;;;;;;9.00;5.80;;;12.90;99.90;;;;;;5092894;28;20028;-68
2021/07/12 03:00:14;;;;;;;8.95;6.90;;;12.80;99.90;;;;;;5091463;28;20017;-68
2021/07/12 03:02:41;;;;;;;10.40;6.82;;;12.90;99.90;;;;;;5074356;28;20028;-69
2021/07/12 03:05:09;;;;;;;7.40;5.43;;;12.80;99.90;;;;;;5093574;28;20032;-68
2021/07/12 03:07:45;;;;;;;13.23;5.75;;;12.70;99.90;;;;;;5094087;28;20028;-68
2021/07/12 03:10:19;;;;;;;9.82;6.25;;;12.60;99.90;;;;;;5085966;28;20031;-69
2021/07/12 03:12:50;;;;;;;8.65;6.65;;;12.70;99.90;;;;;;5100760;28;20024;-70
2021/07/12 03:15:19;;;;;;;10.48;6.63;;;12.70;99.90;;;;;;5092175;28;20059;-70
2021/07/12 03:17:51;;;;;;;7.68;6.00;;;12.70;99.90;;;;;;5091892;28;20107;-70
2021/07/12 03:20:17;;;;;;;7.65;6.82;;;12.70;99.90;;;;;;5091426;28;20028;-70
2021/07/12 03:22:48;;;;;;;14.55;7.00;;;12.70;99.90;;;;;;5091114;28;20028;-70
2021/07/12 03:25:19;;;;;;;14.30;6.97;;;12.70;99.90;;;;;;5091740;28;20024;-70
2021/07/12 03:27:45;;;;;;;12.50;6.13;;;12.60;99.90;;;;;;5091209;28;20560;-69
2021/07/12 03:30:11;;;;;;;11.85;7.53;;;12.70;99.90;;;;;;5090649;28;20028;-68
2021/07/12 03:32:41;;;;;;;7.35;6.63;;;12.60;99.90;;;;;;5072696;28;20512;-69
2021/07/12 03:35:08;;;;;;;10.45;7.38;;;12.70;99.90;;;;;;5080363;28;20040;-69
2021/07/12 03:37:35;;;;;;;8.10;6.47;;;12.70;99.90;;;;;;5071098;28;20017;-69
2021/07/12 03:40:01;;;;;;;11.43;8.02;;;12.60;99.90;;;;;;5070072;28;20020;-70
2021/07/12 03:42:27;;;;;;;8.25;7.25;;;12.60;99.90;;;;;;5070605;28;20107;-70
2021/07/12 03:44:54;;;;;;;11.23;7.72;;;12.60;99.90;;;;;;5070388;28;20027;-70
2021/07/12 03:47:30;;;;;;;8.10;6.90;;;12.60;99.90;;;;;;5071652;28;20078;-69
2021/07/12 03:50:06;;;;;;;11.18;6.85;;;12.50;99.90;;;;;;5051260;28;20132;-69
2021/07/12 03:52:45;;;;;;;7.32;5.45;;;12.50;99.90;;;;;;5035751;28;20039;-70
2021/07/12 03:55:13;;;;;;;8.80;6.15;;;12.50;99.90;;;;;;5029059;28;20124;-73
2021/07/12 03:57:40;;;;;;;9.02;6.75;;;12.50;99.90;;;;;;5031017;28;20029;-69
2021/07/12 04:00:08;;;;;;;9.27;5.80;;;12.60;99.90;;;;;;5029989;28;20108;-69
2021/07/12 04:02:34;;;;;;;7.15;6.45;;;12.50;99.90;;;;;;5030652;28;20075;-70
2021/07/12 04:05:00;;;;;;;8.95;6.18;;;12.50;99.90;;;;;;5039633;28;20478;-69
2021/07/12 04:07:25;;;;;;;11.38;7.68;;;12.50;99.90;;;;;;5074555;23;20041;-70
2021/07/12 04:09:51;;;;;;;12.48;7.68;;;12.60;99.90;;;;;;5043577;28;20052;-70
2021/07/12 04:12:23;;;;;;;9.30;7.40;;;12.60;99.90;;;;;;5030565;28;20665;-71
2021/07/12 04:14:53;;;;;;;8.40;7.20;;;12.60;99.90;;;;;;5030908;28;20479;-70
2021/07/12 04:17:19;;;;;;;11.77;7.45;;;12.70;99.90;;;;;;5017765;28;20438;-71
2021/07/12 04:19:45;;;;;;;13.00;8.00;;;12.70;99.90;;;;;;5010661;28;20510;-70
2021/07/12 04:22:11;;;;;;;11.57;7.20;;;12.60;99.90;;;;;;5010320;28;20034;-71
2021/07/12 04:24:36;;;;;;;8.73;7.30;;;12.60;99.90;;;;;;5011122;28;20447;-71
2021/07/12 04:27:02;;;;;;;9.93;5.45;;;12.60;99.90;;;;;;5011342;28;20025;-72
2021/07/12 04:29:28;;;;;;;6.53;5.93;;;12.50;99.90;;;;;;5012544;28;20487;-72
2021/07/12 04:31:56;;;;;;;11.77;6.50;;;12.50;99.90;;;;;;5021188;28;20029;-70
2021/07/12 04:34:22;;;;;;;10.85;6.85;;;12.60;99.90;;;;;;5033681;28;20033;-70
2021/07/12 04:36:48;;;;;;;14.80;7.00;;;12.70;99.90;;;;;;5032202;28;20018;-70
2021/07/12 04:39:13;;;;;;;10.70;6.50;;;12.70;99.90;;;;;;5031390;28;20021;-71
2021/07/12 04:41:39;;;;;;;11.15;6.82;;;12.70;99.90;;;;;;5032375;28;20030;-70
2021/07/12 04:44:05;;;;;;;11.80;7.47;;;12.80;99.90;;;;;;5032695;28;20036;-70
2021/07/12 04:46:31;;;;;;;10.02;7.13;;;12.80;99.90;;;;;;5033337;28;20037;-69
2021/07/12 04:48:56;;;;;;;11.00;8.15;;;12.80;99.90;;;;;;5034030;28;20101;-71
2021/07/12 04:51:22;;;;;;;12.98;8.10;;;12.90;99.90;;;;;;5032848;28;20025;-70
2021/07/12 04:53:48;;;;;;;11.73;9.48;;;12.90;99.90;;;;;;5033830;28;20033;-71
2021/07/12 04:56:13;;;;;;;11.18;7.90;;;12.90;99.90;;;;;;5034163;28;20063;-71
2021/07/12 04:58:44;;;;;;;15.32;8.35;;;12.90;99.90;;;;;;5033771;28;20105;-76
2021/07/12 05:01:10;;;;;;;12.40;7.53;;;13.00;99.90;;;;;;5036737;28;20475;-77
2021/07/12 05:03:37;;;;;;;16.15;8.27;;;13.00;99.90;;;;;;5041334;28;20030;-78
2021/07/12 05:06:03;;;;;;;10.98;9.20;;;13.10;99.90;;;;;;5053265;28;20025;-77
2021/07/12 05:08:29;;;;;;;11.45;9.20;;;13.20;99.90;;;;;;5039705;28;20664;-77
2021/07/12 05:10:55;;;;;;;10.68;8.98;;;13.30;99.90;;;;;;5035417;28;20025;-76
2021/07/12 05:13:21;;;;;;;12.07;9.18;;;13.40;99.90;;;;;;5032657;28;20690;-76
2021/07/12 05:15:48;;;;;;;9.20;8.25;;;13.40;99.90;;;;;;5051873;28;20026;-78
2021/07/12 05:18:13;;;;;;;10.68;7.50;;;13.40;99.90;;;;;;5035094;28;20041;-70
2021/07/12 05:20:39;;;;;;;10.90;8.07;;;13.50;99.90;;;;;;5031332;28;20030;-70
2021/07/12 05:23:05;;;;;;;8.93;6.95;;;13.60;99.90;;;;;;5032425;28;20457;-70
2021/07/12 05:25:31;;;;;;;9.02;6.43;;;13.50;99.90;;;;;;5033151;28;20080;-71
2021/07/12 05:27:57;;;;;;;8.05;6.07;;;13.50;99.90;;;;;;5033053;28;20472;-70
2021/07/12 05:30:22;;;;;;;6.82;5.28;;;13.50;99.90;;;;;;5032447;28;20030;-71
2021/07/12 05:32:48;;;;;;;8.10;5.07;;;13.50;99.90;;;;;;5032401;28;20393;-70
2021/07/12 05:35:15;;;;;;;9.98;4.60;;;13.50;99.90;;;;;;5033068;28;20029;-70
2021/07/12 05:37:40;;;;;;;10.18;5.10;;;13.50;99.90;;;;;;5032966;28;20479;-70
2021/07/12 05:40:07;;;;;;;8.52;5.25;;;13.60;99.90;;;;;;5032255;28;20029;-71
2021/07/12 05:42:34;;;;;;;7.22;5.15;;;13.80;99.90;;;;;;5031555;28;20029;-71
2021/07/12 05:45:00;;;;;;;4.82;4.43;;;13.80;99.90;;;;;;5032632;28;20029;-71
2021/07/12 05:47:25;;;;;;;7.57;5.07;;;13.80;99.90;;;;;;5031795;28;20036;-72
2021/07/12 05:49:51;;;;;;;10.57;5.30;;;14.00;99.90;;;;;;5031916;28;20045;-72
2021/07/12 05:52:17;;;;;;;7.15;5.25;;;14.10;99.90;;;;;;5019922;28;20029;-71
2021/07/12 05:54:43;;;;;;;11.68;5.90;;;14.30;99.90;;;;;;5029928;28;20059;-71
2021/07/12 05:57:08;;;;;;;10.07;5.50;;;14.30;99.90;;;;;;5029043;28;20037;-70
2021/07/12 05:59:34;;;;;;;5.45;4.97;;;14.40;99.90;;;;;;5035868;28;20017;-72
2021/07/12 06:02:00;;;;;;;7.22;5.07;;;14.40;99.90;;;;;;5032932;28;20029;-69
2021/07/12 06:04:26;;;;;;;7.72;5.10;;;14.60;99.90;;;;;;5032820;28;20057;-70
2021/07/12 06:06:51;;;;;;;8.73;4.45;;;14.60;99.90;;;;;;5032460;28;20438;-72
2021/07/12 06:09:17;;;;;;;6.88;4.85;;;14.70;99.90;;;;;;5033042;28;20321;-70
2021/07/12 06:11:43;;;;;;;10.27;4.65;;;14.80;99.90;;;;;;5039101;28;20079;-71
2021/07/12 06:14:09;;;;;;;5.57;4.28;;;15.00;99.90;;;;;;5052750;28;20070;-71
2021/07/12 06:16:35;;;;;;;5.22;4.15;;;15.10;99.90;;;;;;5052433;28;20664;-70
2021/07/12 06:19:01;;;;;;;7.50;4.78;;;15.40;99.90;;;;;;5052381;28;20035;-69
2021/07/12 06:21:27;;;;;;;9.45;4.88;;;15.60;99.90;;;;;;5051384;28;20029;-71
2021/07/12 06:23:52;;;;;;;4.43;3.85;;;15.70;99.90;;;;;;5052438;28;20040;-71
2021/07/12 06:26:18;;;;;;;10.60;3.92;;;15.70;99.90;;;;;;5051496;28;20025;-73
2021/07/12 06:28:44;;;;;;;6.93;3.42;;;15.70;99.90;;;;;;5053874;28;20029;-71
2021/07/12 06:31:10;;;;;;;5.60;3.60;;;15.80;99.90;;;;;;5053478;28;20076;-71
2021/07/12 06:33:36;;;;;;;4.10;3.70;;;15.90;99.90;;;;;;5051084;28;20028;-71
2021/07/12 06:36:01;;;;;;;5.95;3.70;;;16.00;99.90;;;;;;5051421;28;20021;-72
2021/07/12 06:38:29;;;;;;;6.05;3.75;;;16.20;99.90;;;;;;5035133;28;20089;-72
2021/07/12 06:40:55;;;;;;;4.32;3.63;;;16.50;99.90;;;;;;5036135;28;20475;-72
2021/07/12 06:43:20;;;;;;;4.20;3.08;;;16.50;99.90;;;;;;5032599;28;20087;-72
2021/07/12 06:45:46;;;;;;;4.78;2.58;;;16.60;99.90;;;;;;5032182;28;20411;-72
2021/07/12 06:48:12;;;;;;;3.20;2.90;;;16.80;99.90;;;;;;5039350;28;20481;-72
2021/07/12 06:50:38;;;;;;;5.32;2.80;;;17.00;99.90;;;;;;5051204;28;20035;-70
2021/07/12 06:53:03;;;;;;;4.03;2.40;;;17.20;99.90;;;;;;5051087;28;20033;-72
2021/07/12 06:55:29;;;;;;;7.43;2.38;;;17.30;99.90;;;;;;5052065;28;20024;-70
2021/07/12 06:57:55;;;;;;;3.65;2.10;;;17.40;99.90;;;;;;5051738;28;20502;-70
2021/07/12 07:00:20;;;;;;;2.80;2.60;;;17.40;99.90;;;;;;5051011;28;20028;-71
2021/07/12 07:02:46;;;;;;;3.58;2.60;;;17.50;99.90;;;;;;5051628;28;20029;-71
2021/07/12 07:05:12;;;;;;;7.07;2.40;;;17.70;99.90;;;;;;5051260;28;20108;-72
2021/07/12 07:07:38;;;;;;;4.05;2.80;;;17.70;99.90;;;;;;5036773;28;20033;-72
2021/07/12 07:10:06;;;;;;;3.22;2.28;;;17.90;99.90;;;;;;5030405;28;20413;-70
2021/07/12 07:12:32;;;;;;;2.10;2.00;;;18.10;99.90;;;;;;5031240;28;20116;-71
2021/07/12 07:14:57;;;;;;;2.13;1.90;;;18.40;99.90;;;;;;5031256;28;20148;-71
2021/07/12 07:17:24;;;;;;;3.85;2.10;;;18.60;99.90;;;;;;5031009;28;20552;-71
2021/07/12 07:19:50;;;;;;;2.05;1.85;;;18.70;99.90;;;;;;5030779;28;20053;-71
2021/07/12 07:22:16;;;;;;;5.90;1.70;;;19.00;99.90;;;;;;5031115;28;20111;-71
2021/07/12 07:24:42;;;;;;;3.72;2.00;;;19.20;99.90;;;;;;5031355;28;20113;-70
2021/07/12 07:27:09;;;;;;;3.28;1.73;;;19.20;99.90;;;;;;5030877;28;20028;-72
2021/07/12 07:29:34;;;;;;;2.63;2.03;;;19.40;99.90;;;;;;5030485;28;20495;-69
2021/07/12 07:32:00;;;;;;;2.20;2.00;;;19.50;99.90;;;;;;5031346;28;20025;-70
2021/07/12 07:34:26;;;;;;;4.55;1.63;;;19.60;99.90;;;;;;5031563;28;20798;-71
2021/07/12 07:36:51;;;;;;;2.63;2.40;;;19.80;99.90;;;;;;5030603;28;20495;-68
2021/07/12 07:39:17;;;;;;;2.47;2.17;;;19.90;99.90;;;;;;5031063;28;20018;-70
2021/07/12 07:41:42;;;;;;;2.85;2.10;;;19.90;99.90;;;;;;5030392;28;20479;-71
2021/07/12 07:44:08;;;;;;;2.75;1.90;;;19.90;99.90;;;;;;5031052;28;20029;-68
2021/07/12 07:46:35;;;;;;;4.53;1.70;;;20.00;99.90;;;;;;5031031;28;20026;-69
2021/07/12 07:49:02;;;;;;;3.95;1.70;;;20.10;99.90;;;;;;5030828;28;20028;-70
2021/07/12 07:51:29;;;;;;;5.07;1.65;;;20.20;99.90;;;;;;5030243;28;20029;-70
2021/07/12 07:53:54;;;;;;;3.15;1.60;;;20.40;99.90;;;;;;5028994;28;20022;-70
2021/07/12 07:56:20;;;;;;;2.95;1.75;;;20.50;99.90;;;;;;5030807;28;20416;-69
2021/07/12 07:58:46;;;;;;;2.75;1.75;;;20.80;99.90;;;;;;5030676;28;20099;-69
2021/07/12 08:01:12;;;;;;;1.77;1.25;;;21.00;99.90;;;;;;5029990;28;20029;-71
2021/07/12 08:03:37;;;;;;;2.55;1.42;;;21.30;99.90;;;;;;5030763;28;20128;-75
2021/07/12 08:06:03;;;;;;;1.85;1.35;;;21.50;99.90;;;;;;5033827;28;20022;-73
2021/07/12 08:08:30;;;;;;;1.83;1.65;;;21.60;99.90;;;;;;5034874;28;20029;-75
2021/07/12 08:10:56;;;;;;;2.92;1.35;;;21.90;99.90;;;;;;5034060;28;20031;-74
2021/07/12 08:13:21;;;;;;;2.30;1.40;;;22.10;99.90;;;;;;5034700;28;20029;-74
2021/07/12 08:15:47;;;;;;;2.85;1.60;;;21.90;99.90;;;;;;5034356;28;20144;-77
2021/07/12 08:18:14;;;;;;;1.40;1.17;;;22.10;99.90;;;;;;5034534;28;20021;-77
2021/07/12 08:20:40;;;;;;;3.65;1.45;;;22.30;99.90;;;;;;5034154;28;20053;-75
2021/07/12 08:23:06;;;;;;;1.88;1.33;;;22.50;99.90;;;;;;5034477;28;20096;-75
2021/07/12 08:25:32;;;;;;;1.50;1.40;;;22.70;99.90;;;;;;5034446;28;20037;-75
2021/07/12 08:27:58;;;;;;;1.65;1.42;;;22.90;99.90;;;;;;5034879;28;20084;-79
2021/07/12 08:30:24;;;;;;;2.30;1.50;;;23.10;99.90;;;;;;5033357;28;20052;-78
2021/07/12 08:32:50;;;;;;;1.77;1.30;;;23.20;99.90;;;;;;5033143;28;20475;-75
2021/07/12 08:35:16;;;;;;;2.45;1.48;;;23.10;99.90;;;;;;5034796;28;20018;-77
2021/07/12 08:37:48;;;;;;;1.55;1.45;;;23.20;99.90;;;;;;5037414;28;20033;-77
2021/07/12 08:40:13;;;;;;;;;;;23.30;99.90;;;;;;5034609;28;20017;-77
2021/07/12 08:42:39;;;;;;;1.10;1.00;;;23.50;99.90;;;;;;5034995;28;19916;-76
2021/07/12 08:45:06;;;;;;;1.90;1.13;;;23.50;99.90;;;;;;5034575;28;20030;-76
2021/07/12 08:47:32;;;;;;;1.90;0.95;;;23.60;99.90;;;;;;5038865;28;20033;-77
2021/07/12 08:49:58;;;;;;;1.90;1.10;;;23.70;99.90;;;;;;5036819;28;20032;-76
2021/07/12 08:52:23;;;;;;;1.48;1.30;;;24.00;99.90;;;;;;5036663;28;20036;-77
2021/07/12 08:54:49;;;;;;;1.98;1.10;;;24.50;99.90;;;;;;5034010;28;20083;-69
2021/07/12 08:57:15;;;;;;;0.88;0.88;;;24.40;99.90;;;;;;5032254;28;20109;-71
2021/07/12 08:59:41;;;;;;;1.60;1.10;;;24.40;99.90;;;;;;5027558;28;20013;-69
2021/07/12 09:02:19;;;;;;;1.20;1.15;;;24.50;99.90;;;;;;5032975;28;20112;-68
2021/07/12 09:04:54;;;;;;;1.27;1.17;;;24.60;99.90;;;;;;5032699;28;20075;-69
2021/07/12 09:07:26;;;;;;;4.53;1.00;;;24.80;99.90;;;;;;5040580;28;20431;-69
2021/07/12 09:09:55;;;;;;;;;;;25.20;99.90;;;;;;5033220;28;20037;-70
2021/07/12 09:12:21;;;;;;;1.50;1.00;;;25.50;99.90;;;;;;5033975;28;19909;-71
2021/07/12 09:15:09;;;;;;;1.00;1.00;;;26.10;99.90;;;;;;5033543;28;20028;-69
2021/07/12 09:17:38;;;;;;;1.50;1.10;;;26.00;99.90;;;;;;5034812;28;20029;-69
2021/07/12 09:20:07;;;;;;;1.02;1.02;;;26.40;99.90;;;;;;5053396;28;20679;-71
2021/07/12 09:22:38;;;;;;;1.50;1.17;;;27.10;99.90;;;;;;5052772;28;20020;-68
2021/07/12 09:25:11;;;;;;;1.42;1.10;;;27.50;99.90;;;;;;5053204;28;20443;-68
2021/07/12 09:27:39;;;;;;;1.02;1.00;;;27.20;99.90;;;;;;5053466;28;20467;-69
2021/07/12 09:30:07;;;;;;;2.05;0.93;;;27.70;99.90;;;;;;5052382;28;20162;-69
2021/07/12 09:32:34;;;;;;;1.60;0.85;;;28.50;99.90;;;;;;5052252;28;20372;-69
2021/07/12 09:35:09;;;;;;;3.50;0.93;;;28.60;99.90;;;;;;5053082;28;20024;-66
2021/07/12 09:37:38;;;;;;;1.63;0.90;;;28.50;99.90;;;;;;5038837;28;20029;-67
2021/07/12 09:40:08;;;;;;;1.02;1.02;;;28.10;99.90;;;;;;5032228;28;20502;-68
2021/07/12 09:42:35;;;;;;;0.95;0.95;;;28.50;99.90;;;;;;5032572;28;20368;-68
2021/07/12 09:45:02;;;;;;;0.80;0.80;;;28.80;99.90;;;;;;5032802;28;20045;-68
2021/07/12 09:47:31;;;;;;;1.67;0.88;;;28.90;99.90;;;;;;5032898;28;20040;-68
2021/07/12 09:50:05;;;;;;;3.42;0.90;;;29.10;99.90;;;;;;5032213;28;20029;-70
2021/07/12 09:52:49;;;;;;;0.90;0.90;;;28.80;97.70;;;;;;5032530;28;20446;-67
2021/07/12 09:55:24;;;;;;;1.20;0.80;;;28.50;97.90;;;;;;5044894;28;20021;-68
2021/07/12 09:58:12;;;;;;;0.90;0.90;;;28.00;98.60;;;;;;5052565;28;20059;-67
2021/07/12 10:01:03;;;;;;;2.13;1.20;;;28.00;98.70;;;;;;5050353;28;20055;-68
2021/07/12 10:03:33;;;;;;;1.10;0.98;;;27.70;98.90;;;;;;5052209;28;20021;-68
2021/07/12 10:06:00;;;;;;;0.80;0.80;;;27.60;99.10;;;;;;5051818;28;20540;-69
2021/07/12 10:08:26;;;;;;;3.22;1.10;;;27.10;99.80;;;;;;5046032;23;20088;-67
2021/07/12 10:10:52;;;;;;;0.98;0.98;;;27.10;99.50;;;;;;5046280;28;20053;-67
2021/07/12 10:13:17;;;;;;;1.65;1.27;;;26.70;98.90;;;;;;5031960;28;20128;-67
2021/07/12 10:15:44;;;;;;;1.70;1.17;;;26.30;99.90;;;;;;5032070;28;20082;-66
2021/07/12 10:18:09;;;;;;;1.35;1.25;;;26.40;99.90;;;;;;5044059;28;20028;-66
2021/07/12 10:20:36;;;;;;;0.95;0.95;;;26.50;99.70;;;;;;5050373;28;20398;-68
2021/07/12 10:23:05;;;;;;;1.45;1.17;;;26.70;99.40;;;;;;5052045;28;20033;-68
2021/07/12 10:25:32;;;;;;;0.93;0.90;;;26.90;99.10;;;;;;5051397;28;20025;-68
2021/07/12 10:28:00;;;;;;;1.35;1.00;;;26.80;99.60;;;;;;5051288;28;20036;-68
2021/07/12 10:30:45;;;;;;;1.30;1.20;;;26.90;99.90;;;;;;5048584;28;20021;-67
2021/07/12 10:33:13;;;;;;;1.85;1.10;;;26.90;99.60;;;;;;5051573;28;20053;-67
2021/07/12 10:35:52;;;;;;;1.50;1.15;;;26.80;99.30;;;;;;5051890;28;20122;-67
2021/07/12 10:38:43;;;;;;;1.23;1.05;;;26.50;99.90;;;;;;5048336;28;20028;-67
2021/07/12 10:41:17;;;;;;;1.00;1.00;;;26.90;99.90;;;;;;5031249;28;20014;-67
2021/07/12 10:43:45;;;;;;;2.03;1.10;;;27.00;99.90;;;;;;5031762;28;20025;-68
2021/07/12 10:46:37;;;;;;;1.20;1.10;;;27.00;99.90;;;;;;5031604;28;20042;-68
2021/07/12 10:49:05;;;;;;;1.67;0.93;;;27.00;99.90;;;;;;5046468;28;20029;-68
2021/07/12 10:51:40;;;;;;;1.35;1.25;;;26.90;98.50;;;;;;5050804;28;20025;-68
2021/07/12 10:54:16;;;;;;;1.52;1.00;;;27.50;99.40;;;;;;5051253;28;20024;-68
2021/07/12 10:56:53;;;;;;;0.93;0.93;;;27.80;97.80;;;;;;5051605;28;20026;-68
2021/07/12 10:59:38;;;;;;;2.25;1.30;;;27.80;97.40;;;;;;5051403;28;20075;-69
2021/07/12 11:02:24;;;;;;;2.17;1.33;;;27.60;98.70;;;;;;5048412;28;20100;-69
2021/07/12 11:05:07;;;;;;;1.55;1.45;;;27.80;97.80;;;;;;5050570;28;20102;-68
2021/07/12 11:07:45;;;;;;;1.02;1.02;;;28.00;96.30;;;;;;5051547;28;20036;-68
2021/07/12 11:10:28;;;;;;;4.85;1.67;;;28.00;98.70;;;;;;5050195;28;20036;-68
2021/07/12 11:12:59;;;;;;;1.42;1.33;;;28.20;97.50;;;;;;5051259;28;20479;-68
2021/07/12 11:15:45;;;;;;;1.38;1.27;;;28.40;95.90;;;;;;5051261;28;20025;-68
2021/07/12 11:18:26;;;;;;;3.60;1.55;;;27.50;95.90;;;;;;5051281;28;20056;-68
2021/07/12 11:20:59;;;;;;;5.18;1.27;;;27.60;98.50;;;;;;5050691;28;20020;-67
2021/07/12 11:23:39;;;;;;;3.90;1.48;;;28.10;96.90;;;;;;5050731;28;20029;-68
2021/07/12 11:26:20;;;;;;;2.67;1.20;;;28.50;96.90;;;;;;5051214;28;20025;-67
2021/07/12 11:28:51;;;;;;;1.02;0.90;;;29.30;95.10;;;;;;5051073;28;20031;-68
2021/07/12 11:31:41;;;;;;;2.35;1.13;;;29.30;94.90;;;;;;5050433;28;20040;-68
2021/07/12 11:34:21;;;;;;;4.10;1.33;;;29.50;95.20;;;;;;5051514;28;20154;-68
2021/07/12 11:37:07;;;;;;;1.50;1.40;;;29.40;95.80;;;;;;5050989;28;20036;-68
2021/07/12 11:39:35;;;;;;;3.72;1.20;;;29.00;96.20;;;;;;5041617;28;20455;-68
2021/07/12 11:42:24;;;;;;;2.00;1.52;;;29.30;97.00;;;;;;5034832;28;20029;-67
2021/07/12 11:45:11;;;;;;;2.85;1.13;;;29.80;94.60;;;;;;5035303;28;20029;-67
2021/07/12 11:47:42;;;;;;;1.40;1.30;;;30.00;94.20;;;;;;5035208;28;20472;-67
2021/07/12 11:50:19;;;;;;;2.50;1.50;;;30.50;93.40;;;;;;5034518;28;20155;-67
2021/07/12 11:52:47;;;;;;;1.23;1.13;;;30.60;92.80;;;;;;5034965;28;20058;-67
2021/07/12 11:55:14;;;;;;;1.50;1.40;;;30.40;94.70;;;;;;5034360;28;20029;-68
2021/07/12 11:57:43;;;;;;;1.15;1.15;;;30.80;93.50;;;;;;5035010;28;20083;-68
2021/07/12 12:00:13;;;;;;;1.33;1.10;;;30.90;93.20;;;;;;5034219;28;20026;-68
2021/07/12 12:02:40;;;;;;;2.03;1.23;;;31.20;92.10;;;;;;5045972;28;20034;-67
2021/07/12 12:05:11;;;;;;;1.58;1.33;;;30.80;91.50;;;;;;5042062;28;20052;-67
2021/07/12 12:07:39;;;;;;;1.38;1.30;;;30.00;93.80;;;;;;5036148;28;20025;-67
2021/07/12 12:10:08;;;;;;;2.83;1.27;;;30.70;92.50;;;;;;5050836;28;20040;-67
2021/07/12 12:12:40;;;;;;;3.83;1.40;;;30.90;94.00;;;;;;5055986;28;20025;-68
2021/07/12 12:15:23;;;;;;;1.58;1.48;;;30.60;91.60;;;;;;5055749;28;20053;-68
2021/07/12 12:17:49;;;;;;;1.20;1.20;;;30.80;93.30;;;;;;5054159;28;20036;-67
2021/07/12 12:20:21;;;;;;;2.15;1.10;;;30.50;91.90;;;;;;5052736;28;20013;-68
2021/07/12 12:23:01;;;;;;;1.67;1.35;;;30.50;92.00;;;;;;5053608;28;20031;-66
2021/07/12 12:25:28;;;;;;;2.20;1.10;;;30.50;93.30;;;;;;5049365;28;20029;-67
2021/07/12 12:27:54;;;;;;;1.40;1.30;;;30.90;92.50;;;;;;5053945;28;20025;-66
2021/07/12 12:30:21;;;;;;;1.33;1.10;;;31.10;92.60;;;;;;5050554;28;20025;-68
2021/07/12 12:32:58;;;;;;;1.30;1.20;;;31.00;91.10;;;;;;5053507;28;20043;-68
2021/07/12 12:35:26;;;;;;;1.98;1.40;;;30.80;89.10;;;;;;5051551;28;20075;-68
2021/07/12 12:37:53;;;;;;;2.17;1.20;;;31.10;90.10;;;;;;5053735;28;20023;-67
2021/07/12 12:40:25;;;;;;;2.40;1.15;;;31.70;91.50;;;;;;5051723;28;20040;-67
2021/07/12 12:42:54;;;;;;;1.13;1.13;;;31.80;90.20;;;;;;5053426;28;20020;-67
2021/07/12 12:45:29;;;;;;;1.38;1.25;;;32.00;91.50;;;;;;5053381;28;20108;-67
2021/07/12 12:47:56;;;;;;;2.63;1.20;;;31.40;90.50;;;;;;5053320;28;20035;-68
2021/07/12 12:50:23;;;;;;;1.08;1.00;;;31.10;90.10;;;;;;5051871;28;20027;-68
2021/07/12 12:52:49;;;;;;;1.00;0.88;;;31.60;90.40;;;;;;5053346;28;20025;-68
2021/07/12 12:55:16;;;;;;;1.38;1.27;;;31.20;88.70;;;;;;5057778;28;20021;-69
2021/07/12 12:57:47;;;;;;;1.42;1.20;;;31.00;90.30;;;;;;5055252;28;20021;-68